METAR AND TAF INFORMATION
METAR FOR LGSR
ADDS - METARS form results

(1808 UTC 21 July 2019)
Data provider http://aviationweather.gov/metar/data/
 
METAR text: LGSR 211750Z 34017KT CAVOK 26/17 Q1013
Conditions at: LGSR (SANTORINI ISLAND, GR) observed 1750 UTC 21 July 2019
Temperature: 26.0°C (79°F)
Dewpoint: 17.0°C (63°F) [RH = 58%]
Pressure (altimeter): 29.91 inches Hg (1013.0 mb)
Winds: from the NNW (340 degrees) at 20 MPH (17 knots; 8.7 m/s)
Visibility: 6 or more miles (10+ km)
Ceiling: ceiling and visibility are OK
Clouds: unknown
Weather: no significant weather observed at this time

METAR text: LGSR 211720Z 35020KT CAVOK 25/18 Q1013
Conditions at: LGSR (SANTORINI ISLAND, GR) observed 1720 UTC 21 July 2019
Temperature: 25.0°C (77°F)
Dewpoint: 18.0°C (64°F) [RH = 65%]
Pressure (altimeter): 29.91 inches Hg (1013.0 mb)
Winds: from the N (350 degrees) at 23 MPH (20 knots; 10.3 m/s)
Visibility: 6 or more miles (10+ km)
Ceiling: ceiling and visibility are OK
Clouds: unknown
Weather: no significant weather observed at this time

Forecast for: LGSR (SANTORINI ISLAND, GR)
Text: TAF LGSR 211700Z 2118/2218 35022KT 9999 FEW020
Forecast period: 1800 UTC 21 July 2019 to 1800 UTC 22 July 2019
Forecast type: FROM: standard forecast or significant change
Winds: from the N (350 degrees) at 25 MPH (22 knots; 11.3 m/s)
Visibility: 6 or more miles 10+ km)
Ceiling: at least 12,000 feet AGL
Clouds: few clouds at 2000 feet AGL
Weather: no significant weather forecast for this period
Text: TEMPO 2206/2218 35025G35KT
Forecast period: 0600 to 1800 UTC 22 July 2019
Forecast type: TEMPORARY: The following changes expected for less than half the time period
Winds: from the N (350 degrees) at 29 MPH (25 knots; 12.9 m/s)
gusting to 40 MPH (35 knots; 18.0 m/s)
Visibility: missing
Ceiling: unknown
Clouds: missing
Weather: no significant weather forecast for this period

 ΧΑΡΤΗΣ ΑΕΡΟΔΡΟΜΙΟΥ

 RUNWAY INFORMATION
Διάδρομος 16L Runway length 6972 ft Runway width 98 ft
Runway elevation 123 ft Runway displaced threshold 0 ft Runway heading 159
Διάδρομος 34R Runway length 6972 ft Runway width 98 ft
Runway elevation 53 ft Runway displaced threshold 0 ft Runway heading 339
Διάδρομος 16R Runway length 0 ft Runway width 0 ft
Runway elevation 126 ft Runway displaced threshold 0 ft Runway heading 0
Διάδρομος 34L Runway length 0 ft Runway width 0 ft
Runway elevation 57 ft Runway displaced threshold 0 ft Runway heading 0

 ΣΥΧΝΟΤΗΤΕΣ ΑΕΡΟΔΡΟΜΙΟΥ
Τύπος A/G Όνομα RDO Συχνότητα 563.7 MHZ
Τύπος APP Όνομα APP Συχνότητα 118.05 MHZ
Τύπος TWR Όνομα TWR Συχνότητα 118.05 MHZ

 AIRPORT NEAR NAVIGATION AIDS
Τύπος TACAN Όνομα Santorini Συχνότητα 116400 KHZ
Τύπος VOR-DME Όνομα Santorini Συχνότητα 110400 KHZ
Τύπος NDB Όνομα Thira Συχνότητα 307 KHZ



Hellenic Air Force Virtual - All rights reserved 2019 - Powered by VAM